sensor_id;sensor_type;location;lat;lon;timestamp;P1;durP1;ratioP1;P2;durP2;ratioP2
19605;SDS011;9950;50.168;8.210;2022-12-18T00:00:14;39.25;;;17.20;;
19605;SDS011;9950;50.168;8.210;2022-12-18T00:02:42;33.97;;;16.27;;
19605;SDS011;9950;50.168;8.210;2022-12-18T00:05:09;37.13;;;15.32;;
19605;SDS011;9950;50.168;8.210;2022-12-18T00:07:38;32.90;;;15.82;;
19605;SDS011;9950;50.168;8.210;2022-12-18T00:10:06;32.50;;;14.43;;
19605;SDS011;9950;50.168;8.210;2022-12-18T00:12:33;29.95;;;13.45;;
19605;SDS011;9950;50.168;8.210;2022-12-18T00:15:01;25.30;;;12.10;;
19605;SDS011;9950;50.168;8.210;2022-12-18T00:17:28;27.38;;;13.48;;
19605;SDS011;9950;50.168;8.210;2022-12-18T00:19:55;27.20;;;13.43;;
19605;SDS011;9950;50.168;8.210;2022-12-18T00:22:22;26.30;;;11.65;;
19605;SDS011;9950;50.168;8.210;2022-12-18T00:24:51;28.95;;;12.13;;
19605;SDS011;9950;50.168;8.210;2022-12-18T00:27:18;25.88;;;11.82;;
19605;SDS011;9950;50.168;8.210;2022-12-18T00:29:46;28.63;;;12.68;;
19605;SDS011;9950;50.168;8.210;2022-12-18T00:32:14;27.95;;;12.82;;
19605;SDS011;9950;50.168;8.210;2022-12-18T00:34:42;28.67;;;12.73;;
19605;SDS011;9950;50.168;8.210;2022-12-18T00:37:09;33.42;;;15.32;;
19605;SDS011;9950;50.168;8.210;2022-12-18T00:39:36;28.77;;;14.30;;
19605;SDS011;9950;50.168;8.210;2022-12-18T00:42:05;26.42;;;12.82;;
19605;SDS011;9950;50.168;8.210;2022-12-18T00:44:50;24.70;;;11.00;;
19605;SDS011;9950;50.168;8.210;2022-12-18T00:47:17;28.83;;;12.63;;
19605;SDS011;9950;50.168;8.210;2022-12-18T00:49:44;29.23;;;12.23;;
19605;SDS011;9950;50.168;8.210;2022-12-18T00:52:12;26.25;;;11.82;;
19605;SDS011;9950;50.168;8.210;2022-12-18T00:54:39;24.90;;;11.68;;
19605;SDS011;9950;50.168;8.210;2022-12-18T00:57:08;24.60;;;10.90;;
19605;SDS011;9950;50.168;8.210;2022-12-18T00:59:35;28.02;;;12.68;;
19605;SDS011;9950;50.168;8.210;2022-12-18T01:02:02;27.13;;;11.68;;
19605;SDS011;9950;50.168;8.210;2022-12-18T01:04:31;25.60;;;12.02;;
19605;SDS011;9950;50.168;8.210;2022-12-18T01:06:58;25.17;;;11.45;;
19605;SDS011;9950;50.168;8.210;2022-12-18T01:09:25;26.35;;;11.88;;
19605;SDS011;9950;50.168;8.210;2022-12-18T01:11:53;25.80;;;11.80;;
19605;SDS011;9950;50.168;8.210;2022-12-18T01:14:21;25.20;;;12.80;;
19605;SDS011;9950;50.168;8.210;2022-12-18T01:16:49;29.83;;;12.38;;
19605;SDS011;9950;50.168;8.210;2022-12-18T01:19:16;27.65;;;12.23;;
19605;SDS011;9950;50.168;8.210;2022-12-18T01:21:43;29.40;;;12.65;;
19605;SDS011;9950;50.168;8.210;2022-12-18T01:24:11;29.55;;;12.57;;
19605;SDS011;9950;50.168;8.210;2022-12-18T01:26:38;28.55;;;13.18;;
19605;SDS011;9950;50.168;8.210;2022-12-18T01:29:06;26.55;;;13.70;;
19605;SDS011;9950;50.168;8.210;2022-12-18T01:31:34;30.48;;;13.65;;
19605;SDS011;9950;50.168;8.210;2022-12-18T01:34:02;25.13;;;12.45;;
19605;SDS011;9950;50.168;8.210;2022-12-18T01:36:30;27.83;;;12.82;;
19605;SDS011;9950;50.168;8.210;2022-12-18T01:38:58;25.98;;;13.02;;
19605;SDS011;9950;50.168;8.210;2022-12-18T01:41:27;26.10;;;12.02;;
19605;SDS011;9950;50.168;8.210;2022-12-18T01:47:03;30.38;;;12.07;;
19605;SDS011;9950;50.168;8.210;2022-12-18T01:49:30;28.50;;;12.05;;
19605;SDS011;9950;50.168;8.210;2022-12-18T01:51:57;30.58;;;14.18;;
19605;SDS011;9950;50.168;8.210;2022-12-18T01:54:28;25.20;;;12.75;;
19605;SDS011;9950;50.168;8.210;2022-12-18T01:56:58;27.50;;;12.43;;
19605;SDS011;9950;50.168;8.210;2022-12-18T01:59:26;30.65;;;14.05;;
19605;SDS011;9950;50.168;8.210;2022-12-18T02:01:54;28.40;;;12.48;;
19605;SDS011;9950;50.168;8.210;2022-12-18T02:04:23;38.22;;;14.07;;
19605;SDS011;9950;50.168;8.210;2022-12-18T02:06:51;27.98;;;12.63;;
19605;SDS011;9950;50.168;8.210;2022-12-18T02:09:23;37.08;;;13.50;;
19605;SDS011;9950;50.168;8.210;2022-12-18T02:11:53;34.53;;;14.35;;
19605;SDS011;9950;50.168;8.210;2022-12-18T02:14:27;35.00;;;14.90;;
19605;SDS011;9950;50.168;8.210;2022-12-18T02:16:57;35.70;;;14.18;;
19605;SDS011;9950;50.168;8.210;2022-12-18T02:19:32;33.70;;;14.35;;
19605;SDS011;9950;50.168;8.210;2022-12-18T02:22:06;33.20;;;13.57;;
19605;SDS011;9950;50.168;8.210;2022-12-18T02:24:38;32.60;;;15.77;;
19605;SDS011;9950;50.168;8.210;2022-12-18T02:27:09;36.22;;;14.30;;
19605;SDS011;9950;50.168;8.210;2022-12-18T02:29:36;39.20;;;16.05;;
19605;SDS011;9950;50.168;8.210;2022-12-18T02:32:06;48.70;;;18.33;;
19605;SDS011;9950;50.168;8.210;2022-12-18T02:34:36;41.67;;;16.23;;
19605;SDS011;9950;50.168;8.210;2022-12-18T02:37:05;40.00;;;16.80;;
19605;SDS011;9950;50.168;8.210;2022-12-18T02:39:36;42.10;;;16.60;;
19605;SDS011;9950;50.168;8.210;2022-12-18T02:42:04;44.90;;;17.38;;
19605;SDS011;9950;50.168;8.210;2022-12-18T02:44:34;36.22;;;16.17;;
19605;SDS011;9950;50.168;8.210;2022-12-18T02:47:02;37.92;;;15.98;;
19605;SDS011;9950;50.168;8.210;2022-12-18T02:49:31;40.58;;;17.42;;
19605;SDS011;9950;50.168;8.210;2022-12-18T02:52:05;40.53;;;16.73;;
19605;SDS011;9950;50.168;8.210;2022-12-18T02:54:39;35.42;;;15.52;;
19605;SDS011;9950;50.168;8.210;2022-12-18T02:57:12;51.90;;;18.23;;
19605;SDS011;9950;50.168;8.210;2022-12-18T02:59:45;43.00;;;17.60;;
19605;SDS011;9950;50.168;8.210;2022-12-18T03:02:17;38.17;;;17.30;;
19605;SDS011;9950;50.168;8.210;2022-12-18T03:04:47;41.38;;;18.13;;
19605;SDS011;9950;50.168;8.210;2022-12-18T03:07:15;42.65;;;19.17;;
19605;SDS011;9950;50.168;8.210;2022-12-18T03:09:44;40.60;;;18.00;;
19605;SDS011;9950;50.168;8.210;2022-12-18T03:12:14;41.75;;;17.75;;
19605;SDS011;9950;50.168;8.210;2022-12-18T03:14:50;44.78;;;18.17;;
19605;SDS011;9950;50.168;8.210;2022-12-18T03:17:20;43.90;;;19.75;;
19605;SDS011;9950;50.168;8.210;2022-12-18T03:19:50;49.92;;;20.38;;
19605;SDS011;9950;50.168;8.210;2022-12-18T03:22:18;45.58;;;20.25;;
19605;SDS011;9950;50.168;8.210;2022-12-18T03:24:47;52.40;;;22.80;;
19605;SDS011;9950;50.168;8.210;2022-12-18T03:27:16;49.17;;;21.30;;
19605;SDS011;9950;50.168;8.210;2022-12-18T03:29:45;45.45;;;20.13;;
19605;SDS011;9950;50.168;8.210;2022-12-18T03:32:17;55.60;;;23.92;;
19605;SDS011;9950;50.168;8.210;2022-12-18T03:34:47;50.97;;;22.27;;
19605;SDS011;9950;50.168;8.210;2022-12-18T03:37:16;54.05;;;22.88;;
19605;SDS011;9950;50.168;8.210;2022-12-18T03:39:43;51.20;;;22.48;;
19605;SDS011;9950;50.168;8.210;2022-12-18T03:42:12;47.30;;;21.27;;
19605;SDS011;9950;50.168;8.210;2022-12-18T03:44:43;45.38;;;20.20;;
19605;SDS011;9950;50.168;8.210;2022-12-18T03:47:13;44.45;;;20.00;;
19605;SDS011;9950;50.168;8.210;2022-12-18T03:49:44;51.65;;;20.17;;
19605;SDS011;9950;50.168;8.210;2022-12-18T03:52:13;49.05;;;20.00;;
19605;SDS011;9950;50.168;8.210;2022-12-18T03:54:45;45.30;;;19.90;;
19605;SDS011;9950;50.168;8.210;2022-12-18T03:57:14;50.92;;;19.42;;
19605;SDS011;9950;50.168;8.210;2022-12-18T03:59:42;44.38;;;19.88;;
19605;SDS011;9950;50.168;8.210;2022-12-18T04:02:10;42.22;;;18.23;;
19605;SDS011;9950;50.168;8.210;2022-12-18T04:04:38;45.53;;;20.33;;
19605;SDS011;9950;50.168;8.210;2022-12-18T04:07:07;44.85;;;20.23;;
19605;SDS011;9950;50.168;8.210;2022-12-18T04:09:35;47.38;;;21.13;;
19605;SDS011;9950;50.168;8.210;2022-12-18T04:12:03;48.65;;;20.52;;
19605;SDS011;9950;50.168;8.210;2022-12-18T04:14:31;49.00;;;21.80;;
19605;SDS011;9950;50.168;8.210;2022-12-18T04:17:00;44.10;;;20.45;;
19605;SDS011;9950;50.168;8.210;2022-12-18T04:19:27;44.65;;;21.13;;
19605;SDS011;9950;50.168;8.210;2022-12-18T04:21:55;51.80;;;21.42;;
19605;SDS011;9950;50.168;8.210;2022-12-18T04:24:23;43.22;;;19.85;;
19605;SDS011;9950;50.168;8.210;2022-12-18T04:26:51;40.88;;;18.63;;
19605;SDS011;9950;50.168;8.210;2022-12-18T04:29:18;47.10;;;21.45;;
19605;SDS011;9950;50.168;8.210;2022-12-18T04:31:45;48.97;;;20.95;;
19605;SDS011;9950;50.168;8.210;2022-12-18T04:34:13;48.63;;;21.00;;
19605;SDS011;9950;50.168;8.210;2022-12-18T04:36:40;49.55;;;20.65;;
19605;SDS011;9950;50.168;8.210;2022-12-18T04:39:07;42.22;;;19.30;;
19605;SDS011;9950;50.168;8.210;2022-12-18T04:41:36;42.30;;;18.65;;
19605;SDS011;9950;50.168;8.210;2022-12-18T04:44:04;37.22;;;18.38;;
19605;SDS011;9950;50.168;8.210;2022-12-18T04:46:31;45.05;;;19.70;;
19605;SDS011;9950;50.168;8.210;2022-12-18T04:48:58;44.35;;;18.95;;
19605;SDS011;9950;50.168;8.210;2022-12-18T04:51:25;39.25;;;18.15;;
19605;SDS011;9950;50.168;8.210;2022-12-18T04:53:53;48.05;;;20.23;;
19605;SDS011;9950;50.168;8.210;2022-12-18T04:56:21;43.67;;;20.50;;
19605;SDS011;9950;50.168;8.210;2022-12-18T04:58:50;45.63;;;18.27;;
19605;SDS011;9950;50.168;8.210;2022-12-18T05:01:17;38.35;;;18.02;;
19605;SDS011;9950;50.168;8.210;2022-12-18T05:03:45;40.92;;;17.98;;
19605;SDS011;9950;50.168;8.210;2022-12-18T05:06:12;41.00;;;16.88;;
19605;SDS011;9950;50.168;8.210;2022-12-18T05:08:39;36.03;;;17.90;;
19605;SDS011;9950;50.168;8.210;2022-12-18T05:11:08;42.80;;;17.40;;
19605;SDS011;9950;50.168;8.210;2022-12-18T05:13:35;42.67;;;17.98;;
19605;SDS011;9950;50.168;8.210;2022-12-18T05:16:04;42.78;;;18.65;;
19605;SDS011;9950;50.168;8.210;2022-12-18T05:18:32;42.65;;;17.38;;
19605;SDS011;9950;50.168;8.210;2022-12-18T05:20:59;37.45;;;16.83;;
19605;SDS011;9950;50.168;8.210;2022-12-18T05:23:27;42.67;;;17.70;;
19605;SDS011;9950;50.168;8.210;2022-12-18T05:25:54;41.00;;;17.83;;
19605;SDS011;9950;50.168;8.210;2022-12-18T05:28:25;38.67;;;18.13;;
19605;SDS011;9950;50.168;8.210;2022-12-18T05:30:53;43.92;;;18.73;;
19605;SDS011;9950;50.168;8.210;2022-12-18T05:33:23;38.85;;;17.70;;
19605;SDS011;9950;50.168;8.210;2022-12-18T05:35:50;39.47;;;17.30;;
19605;SDS011;9950;50.168;8.210;2022-12-18T05:38:18;37.03;;;17.40;;
19605;SDS011;9950;50.168;8.210;2022-12-18T05:40:46;42.88;;;18.10;;
19605;SDS011;9950;50.168;8.210;2022-12-18T05:43:14;39.58;;;16.73;;
19605;SDS011;9950;50.168;8.210;2022-12-18T05:45:41;38.30;;;17.00;;
19605;SDS011;9950;50.168;8.210;2022-12-18T05:48:08;57.92;;;21.42;;
19605;SDS011;9950;50.168;8.210;2022-12-18T05:50:38;41.30;;;17.00;;
19605;SDS011;9950;50.168;8.210;2022-12-18T05:53:06;40.80;;;17.35;;
19605;SDS011;9950;50.168;8.210;2022-12-18T05:55:33;49.25;;;19.05;;
19605;SDS011;9950;50.168;8.210;2022-12-18T05:58:01;47.47;;;18.67;;
19605;SDS011;9950;50.168;8.210;2022-12-18T06:00:28;43.85;;;18.58;;
19605;SDS011;9950;50.168;8.210;2022-12-18T06:02:57;42.63;;;17.90;;
19605;SDS011;9950;50.168;8.210;2022-12-18T06:05:24;43.72;;;17.77;;
19605;SDS011;9950;50.168;8.210;2022-12-18T06:07:53;45.20;;;18.63;;
19605;SDS011;9950;50.168;8.210;2022-12-18T06:10:20;46.03;;;18.55;;
19605;SDS011;9950;50.168;8.210;2022-12-18T06:12:47;35.97;;;17.17;;
19605;SDS011;9950;50.168;8.210;2022-12-18T06:15:14;38.42;;;17.50;;
19605;SDS011;9950;50.168;8.210;2022-12-18T06:17:42;40.70;;;17.15;;
19605;SDS011;9950;50.168;8.210;2022-12-18T06:20:09;39.50;;;16.45;;
19605;SDS011;9950;50.168;8.210;2022-12-18T06:22:36;39.50;;;16.55;;
19605;SDS011;9950;50.168;8.210;2022-12-18T06:25:06;38.17;;;16.38;;
19605;SDS011;9950;50.168;8.210;2022-12-18T06:27:33;37.33;;;17.25;;
19605;SDS011;9950;50.168;8.210;2022-12-18T06:30:00;38.20;;;16.33;;
19605;SDS011;9950;50.168;8.210;2022-12-18T06:32:28;38.22;;;16.80;;
19605;SDS011;9950;50.168;8.210;2022-12-18T06:34:55;38.28;;;17.02;;
19605;SDS011;9950;50.168;8.210;2022-12-18T06:37:22;39.67;;;16.85;;
19605;SDS011;9950;50.168;8.210;2022-12-18T06:39:51;37.13;;;15.80;;
19605;SDS011;9950;50.168;8.210;2022-12-18T06:42:19;38.00;;;16.55;;
19605;SDS011;9950;50.168;8.210;2022-12-18T06:44:47;40.63;;;16.60;;
19605;SDS011;9950;50.168;8.210;2022-12-18T06:47:14;39.90;;;16.83;;
19605;SDS011;9950;50.168;8.210;2022-12-18T06:49:41;40.40;;;15.52;;
19605;SDS011;9950;50.168;8.210;2022-12-18T06:52:08;36.75;;;16.17;;
19605;SDS011;9950;50.168;8.210;2022-12-18T06:54:36;31.60;;;14.57;;
19605;SDS011;9950;50.168;8.210;2022-12-18T06:57:03;35.78;;;16.38;;
19605;SDS011;9950;50.168;8.210;2022-12-18T06:59:32;40.63;;;16.88;;
19605;SDS011;9950;50.168;8.210;2022-12-18T07:01:59;40.78;;;16.65;;
19605;SDS011;9950;50.168;8.210;2022-12-18T07:04:27;39.08;;;16.85;;
19605;SDS011;9950;50.168;8.210;2022-12-18T07:06:54;36.45;;;17.42;;
19605;SDS011;9950;50.168;8.210;2022-12-18T07:09:22;38.85;;;17.13;;
19605;SDS011;9950;50.168;8.210;2022-12-18T07:11:49;40.90;;;18.98;;
19605;SDS011;9950;50.168;8.210;2022-12-18T07:14:17;44.15;;;18.88;;
19605;SDS011;9950;50.168;8.210;2022-12-18T07:16:46;43.63;;;17.35;;
19605;SDS011;9950;50.168;8.210;2022-12-18T07:19:13;35.67;;;16.45;;
19605;SDS011;9950;50.168;8.210;2022-12-18T07:21:40;42.08;;;19.25;;
19605;SDS011;9950;50.168;8.210;2022-12-18T07:24:07;39.67;;;17.30;;
19605;SDS011;9950;50.168;8.210;2022-12-18T07:26:35;36.65;;;15.85;;
19605;SDS011;9950;50.168;8.210;2022-12-18T07:29:02;34.85;;;15.27;;
19605;SDS011;9950;50.168;8.210;2022-12-18T07:31:29;37.15;;;16.17;;
19605;SDS011;9950;50.168;8.210;2022-12-18T07:33:58;40.70;;;17.45;;
19605;SDS011;9950;50.168;8.210;2022-12-18T07:36:25;39.55;;;17.05;;
19605;SDS011;9950;50.168;8.210;2022-12-18T07:38:52;37.95;;;15.98;;
19605;SDS011;9950;50.168;8.210;2022-12-18T07:41:21;36.63;;;17.08;;
19605;SDS011;9950;50.168;8.210;2022-12-18T07:43:48;40.97;;;17.30;;
19605;SDS011;9950;50.168;8.210;2022-12-18T07:46:15;36.15;;;18.10;;
19605;SDS011;9950;50.168;8.210;2022-12-18T07:48:43;35.65;;;16.75;;
19605;SDS011;9950;50.168;8.210;2022-12-18T07:51:12;40.33;;;17.00;;
19605;SDS011;9950;50.168;8.210;2022-12-18T07:53:40;42.50;;;16.88;;
19605;SDS011;9950;50.168;8.210;2022-12-18T07:56:08;39.80;;;17.40;;
19605;SDS011;9950;50.168;8.210;2022-12-18T07:58:35;38.17;;;17.95;;
19605;SDS011;9950;50.168;8.210;2022-12-18T08:01:03;33.13;;;15.70;;
19605;SDS011;9950;50.168;8.210;2022-12-18T08:03:30;39.13;;;16.40;;
19605;SDS011;9950;50.168;8.210;2022-12-18T08:05:58;32.72;;;16.58;;
19605;SDS011;9950;50.168;8.210;2022-12-18T08:08:27;43.20;;;16.80;;
19605;SDS011;9950;50.168;8.210;2022-12-18T08:10:55;34.40;;;15.85;;
19605;SDS011;9950;50.168;8.210;2022-12-18T08:13:22;38.67;;;18.35;;
19605;SDS011;9950;50.168;8.210;2022-12-18T08:15:55;37.85;;;17.13;;
19605;SDS011;9950;50.168;8.210;2022-12-18T08:18:23;52.63;;;25.20;;
19605;SDS011;9950;50.168;8.210;2022-12-18T08:20:50;47.08;;;21.08;;
19605;SDS011;9950;50.168;8.210;2022-12-18T08:23:18;41.28;;;20.35;;
19605;SDS011;9950;50.168;8.210;2022-12-18T08:25:46;39.50;;;19.77;;
19605;SDS011;9950;50.168;8.210;2022-12-18T08:28:13;45.58;;;19.27;;
19605;SDS011;9950;50.168;8.210;2022-12-18T08:30:41;38.25;;;17.40;;
19605;SDS011;9950;50.168;8.210;2022-12-18T08:33:08;38.17;;;16.80;;
19605;SDS011;9950;50.168;8.210;2022-12-18T08:35:36;36.50;;;18.00;;
19605;SDS011;9950;50.168;8.210;2022-12-18T08:38:03;28.23;;;13.55;;
19605;SDS011;9950;50.168;8.210;2022-12-18T08:40:37;39.30;;;17.73;;
19605;SDS011;9950;50.168;8.210;2022-12-18T08:43:06;34.65;;;16.45;;
19605;SDS011;9950;50.168;8.210;2022-12-18T08:45:52;40.28;;;17.13;;
19605;SDS011;9950;50.168;8.210;2022-12-18T08:48:19;32.65;;;15.43;;
19605;SDS011;9950;50.168;8.210;2022-12-18T08:50:53;35.95;;;16.75;;
19605;SDS011;9950;50.168;8.210;2022-12-18T08:53:20;34.00;;;15.80;;
19605;SDS011;9950;50.168;8.210;2022-12-18T08:55:47;35.15;;;15.32;;
19605;SDS011;9950;50.168;8.210;2022-12-18T08:58:16;37.90;;;16.48;;
19605;SDS011;9950;50.168;8.210;2022-12-18T09:00:43;30.23;;;15.00;;
19605;SDS011;9950;50.168;8.210;2022-12-18T09:03:14;36.00;;;15.35;;
19605;SDS011;9950;50.168;8.210;2022-12-18T09:05:42;35.40;;;15.30;;
19605;SDS011;9950;50.168;8.210;2022-12-18T09:08:09;35.90;;;15.60;;
19605;SDS011;9950;50.168;8.210;2022-12-18T09:10:40;36.97;;;17.55;;
19605;SDS011;9950;50.168;8.210;2022-12-18T09:13:08;33.42;;;16.70;;
19605;SDS011;9950;50.168;8.210;2022-12-18T09:15:41;37.17;;;16.65;;
19605;SDS011;9950;50.168;8.210;2022-12-18T09:18:08;32.47;;;15.98;;
19605;SDS011;9950;50.168;8.210;2022-12-18T09:20:36;33.10;;;16.10;;
19605;SDS011;9950;50.168;8.210;2022-12-18T09:23:03;37.25;;;16.08;;
19605;SDS011;9950;50.168;8.210;2022-12-18T09:25:31;37.17;;;17.40;;
19605;SDS011;9950;50.168;8.210;2022-12-18T09:28:00;39.47;;;16.90;;
19605;SDS011;9950;50.168;8.210;2022-12-18T09:30:28;35.22;;;16.40;;
19605;SDS011;9950;50.168;8.210;2022-12-18T09:32:59;35.63;;;16.42;;
19605;SDS011;9950;50.168;8.210;2022-12-18T09:35:27;37.13;;;17.95;;
19605;SDS011;9950;50.168;8.210;2022-12-18T09:37:54;37.60;;;16.83;;
19605;SDS011;9950;50.168;8.210;2022-12-18T09:40:22;33.92;;;16.27;;
19605;SDS011;9950;50.168;8.210;2022-12-18T09:42:51;36.00;;;17.33;;
19605;SDS011;9950;50.168;8.210;2022-12-18T09:45:19;39.20;;;18.02;;
19605;SDS011;9950;50.168;8.210;2022-12-18T09:47:47;37.85;;;16.33;;
19605;SDS011;9950;50.168;8.210;2022-12-18T09:50:22;32.03;;;16.20;;
19605;SDS011;9950;50.168;8.210;2022-12-18T09:52:51;34.05;;;16.52;;
19605;SDS011;9950;50.168;8.210;2022-12-18T09:55:21;34.85;;;15.70;;
19605;SDS011;9950;50.168;8.210;2022-12-18T09:57:51;37.60;;;17.15;;
19605;SDS011;9950;50.168;8.210;2022-12-18T10:00:19;43.60;;;17.90;;
19605;SDS011;9950;50.168;8.210;2022-12-18T10:02:47;34.45;;;16.08;;
19605;SDS011;9950;50.168;8.210;2022-12-18T10:05:16;36.03;;;15.95;;
19605;SDS011;9950;50.168;8.210;2022-12-18T10:07:49;41.25;;;17.00;;
19605;SDS011;9950;50.168;8.210;2022-12-18T10:10:26;37.92;;;16.63;;
19605;SDS011;9950;50.168;8.210;2022-12-18T10:12:57;36.03;;;16.00;;
19605;SDS011;9950;50.168;8.210;2022-12-18T10:15:30;36.50;;;17.17;;
19605;SDS011;9950;50.168;8.210;2022-12-18T10:18:01;36.17;;;16.17;;
19605;SDS011;9950;50.168;8.210;2022-12-18T10:20:32;31.60;;;14.45;;
19605;SDS011;9950;50.168;8.210;2022-12-18T10:23:08;34.13;;;15.40;;
19605;SDS011;9950;50.168;8.210;2022-12-18T10:25:41;34.20;;;16.20;;
19605;SDS011;9950;50.168;8.210;2022-12-18T10:28:12;32.83;;;16.67;;
19605;SDS011;9950;50.168;8.210;2022-12-18T10:30:40;36.20;;;16.73;;
19605;SDS011;9950;50.168;8.210;2022-12-18T10:33:09;36.63;;;18.10;;
19605;SDS011;9950;50.168;8.210;2022-12-18T10:35:40;43.08;;;18.77;;
19605;SDS011;9950;50.168;8.210;2022-12-18T10:38:21;42.40;;;19.23;;
19605;SDS011;9950;50.168;8.210;2022-12-18T10:40:50;52.72;;;22.83;;
19605;SDS011;9950;50.168;8.210;2022-12-18T10:43:22;47.67;;;22.05;;
19605;SDS011;9950;50.168;8.210;2022-12-18T10:46:03;38.20;;;18.13;;
19605;SDS011;9950;50.168;8.210;2022-12-18T10:48:32;38.28;;;17.25;;
19605;SDS011;9950;50.168;8.210;2022-12-18T10:51:00;45.95;;;19.67;;
19605;SDS011;9950;50.168;8.210;2022-12-18T10:53:29;44.92;;;19.98;;
19605;SDS011;9950;50.168;8.210;2022-12-18T10:56:00;34.83;;;15.77;;
19605;SDS011;9950;50.168;8.210;2022-12-18T10:58:29;43.10;;;19.73;;
19605;SDS011;9950;50.168;8.210;2022-12-18T11:01:08;36.38;;;18.42;;
19605;SDS011;9950;50.168;8.210;2022-12-18T11:03:37;39.25;;;19.08;;
19605;SDS011;9950;50.168;8.210;2022-12-18T11:06:05;42.40;;;19.70;;
19605;SDS011;9950;50.168;8.210;2022-12-18T11:08:34;44.17;;;18.60;;
19605;SDS011;9950;50.168;8.210;2022-12-18T11:11:02;42.72;;;19.55;;
19605;SDS011;9950;50.168;8.210;2022-12-18T11:13:29;40.55;;;18.25;;
19605;SDS011;9950;50.168;8.210;2022-12-18T11:15:58;41.47;;;18.98;;
19605;SDS011;9950;50.168;8.210;2022-12-18T11:18:26;35.83;;;18.58;;
19605;SDS011;9950;50.168;8.210;2022-12-18T11:20:54;37.13;;;18.55;;
19605;SDS011;9950;50.168;8.210;2022-12-18T11:23:23;38.10;;;19.10;;
19605;SDS011;9950;50.168;8.210;2022-12-18T11:25:52;40.35;;;19.23;;
19605;SDS011;9950;50.168;8.210;2022-12-18T11:28:28;43.00;;;19.15;;
19605;SDS011;9950;50.168;8.210;2022-12-18T11:31:09;39.50;;;17.20;;
19605;SDS011;9950;50.168;8.210;2022-12-18T11:33:39;38.45;;;18.60;;
19605;SDS011;9950;50.168;8.210;2022-12-18T11:36:08;45.05;;;22.45;;
19605;SDS011;9950;50.168;8.210;2022-12-18T11:38:37;46.35;;;21.90;;
19605;SDS011;9950;50.168;8.210;2022-12-18T11:41:09;44.55;;;22.15;;
19605;SDS011;9950;50.168;8.210;2022-12-18T11:43:41;43.15;;;19.45;;
19605;SDS011;9950;50.168;8.210;2022-12-18T11:46:12;46.72;;;19.52;;
19605;SDS011;9950;50.168;8.210;2022-12-18T11:48:41;44.08;;;20.80;;
19605;SDS011;9950;50.168;8.210;2022-12-18T11:51:11;47.35;;;20.85;;
19605;SDS011;9950;50.168;8.210;2022-12-18T11:53:40;46.13;;;20.08;;
19605;SDS011;9950;50.168;8.210;2022-12-18T11:56:14;46.42;;;22.08;;
19605;SDS011;9950;50.168;8.210;2022-12-18T11:58:45;43.75;;;21.25;;
19605;SDS011;9950;50.168;8.210;2022-12-18T12:01:16;47.17;;;21.58;;
19605;SDS011;9950;50.168;8.210;2022-12-18T12:03:48;45.13;;;21.48;;
19605;SDS011;9950;50.168;8.210;2022-12-18T12:06:22;47.38;;;21.98;;
19605;SDS011;9950;50.168;8.210;2022-12-18T12:08:58;44.22;;;19.60;;
19605;SDS011;9950;50.168;8.210;2022-12-18T12:11:29;53.58;;;24.40;;
19605;SDS011;9950;50.168;8.210;2022-12-18T12:14:08;52.45;;;23.50;;
19605;SDS011;9950;50.168;8.210;2022-12-18T12:16:41;53.17;;;23.13;;
19605;SDS011;9950;50.168;8.210;2022-12-18T12:19:16;52.65;;;24.30;;
19605;SDS011;9950;50.168;8.210;2022-12-18T12:21:48;59.03;;;26.15;;
19605;SDS011;9950;50.168;8.210;2022-12-18T12:24:23;59.80;;;26.98;;
19605;SDS011;9950;50.168;8.210;2022-12-18T12:26:57;59.90;;;26.17;;
19605;SDS011;9950;50.168;8.210;2022-12-18T12:29:32;67.70;;;28.50;;
19605;SDS011;9950;50.168;8.210;2022-12-18T12:32:13;58.03;;;26.55;;
19605;SDS011;9950;50.168;8.210;2022-12-18T12:34:47;66.00;;;28.63;;
19605;SDS011;9950;50.168;8.210;2022-12-18T12:37:19;69.65;;;30.02;;
19605;SDS011;9950;50.168;8.210;2022-12-18T12:39:48;67.95;;;30.73;;
19605;SDS011;9950;50.168;8.210;2022-12-18T12:42:18;57.67;;;25.15;;
19605;SDS011;9950;50.168;8.210;2022-12-18T12:45:05;57.33;;;26.42;;
19605;SDS011;9950;50.168;8.210;2022-12-18T12:47:35;61.72;;;27.05;;
19605;SDS011;9950;50.168;8.210;2022-12-18T12:50:05;51.25;;;23.92;;
19605;SDS011;9950;50.168;8.210;2022-12-18T12:52:41;61.13;;;26.33;;
19605;SDS011;9950;50.168;8.210;2022-12-18T12:55:12;65.97;;;26.92;;
19605;SDS011;9950;50.168;8.210;2022-12-18T12:57:43;60.53;;;25.85;;
19605;SDS011;9950;50.168;8.210;2022-12-18T13:00:13;67.90;;;27.52;;
19605;SDS011;9950;50.168;8.210;2022-12-18T13:02:42;61.38;;;26.92;;
19605;SDS011;9950;50.168;8.210;2022-12-18T13:05:16;69.65;;;32.08;;
19605;SDS011;9950;50.168;8.210;2022-12-18T13:07:46;104.85;;;50.88;;
19605;SDS011;9950;50.168;8.210;2022-12-18T13:10:25;69.95;;;32.65;;
19605;SDS011;9950;50.168;8.210;2022-12-18T13:12:55;71.10;;;32.80;;
19605;SDS011;9950;50.168;8.210;2022-12-18T13:15:22;60.63;;;25.30;;
19605;SDS011;9950;50.168;8.210;2022-12-18T13:18:02;59.67;;;23.98;;
19605;SDS011;9950;50.168;8.210;2022-12-18T13:20:32;73.82;;;33.03;;
19605;SDS011;9950;50.168;8.210;2022-12-18T13:22:59;56.97;;;25.25;;
19605;SDS011;9950;50.168;8.210;2022-12-18T13:25:33;56.13;;;22.95;;
19605;SDS011;9950;50.168;8.210;2022-12-18T13:28:06;101.63;;;48.13;;
19605;SDS011;9950;50.168;8.210;2022-12-18T13:36:15;67.07;;;30.00;;
19605;SDS011;9950;50.168;8.210;2022-12-18T13:38:43;60.33;;;25.88;;
19605;SDS011;9950;50.168;8.210;2022-12-18T13:41:24;51.40;;;22.20;;
19605;SDS011;9950;50.168;8.210;2022-12-18T13:43:54;57.13;;;23.35;;
19605;SDS011;9950;50.168;8.210;2022-12-18T13:46:24;58.67;;;24.67;;
19605;SDS011;9950;50.168;8.210;2022-12-18T13:48:55;62.50;;;24.02;;
19605;SDS011;9950;50.168;8.210;2022-12-18T13:51:23;51.95;;;21.48;;
19605;SDS011;9950;50.168;8.210;2022-12-18T13:53:51;62.30;;;22.88;;
19605;SDS011;9950;50.168;8.210;2022-12-18T13:56:22;53.95;;;23.65;;
19605;SDS011;9950;50.168;8.210;2022-12-18T13:59:04;57.08;;;22.67;;
19605;SDS011;9950;50.168;8.210;2022-12-18T14:01:32;51.72;;;19.55;;
19605;SDS011;9950;50.168;8.210;2022-12-18T14:04:10;57.30;;;23.23;;
19605;SDS011;9950;50.168;8.210;2022-12-18T14:06:38;59.67;;;24.92;;
19605;SDS011;9950;50.168;8.210;2022-12-18T14:09:05;70.47;;;28.67;;
19605;SDS011;9950;50.168;8.210;2022-12-18T14:11:33;55.80;;;24.02;;
19605;SDS011;9950;50.168;8.210;2022-12-18T14:14:01;59.60;;;24.63;;
19605;SDS011;9950;50.168;8.210;2022-12-18T14:16:30;67.20;;;25.40;;
19605;SDS011;9950;50.168;8.210;2022-12-18T14:18:58;59.70;;;25.27;;
19605;SDS011;9950;50.168;8.210;2022-12-18T14:21:26;59.53;;;24.98;;
19605;SDS011;9950;50.168;8.210;2022-12-18T14:24:04;60.17;;;23.67;;
19605;SDS011;9950;50.168;8.210;2022-12-18T14:26:32;60.25;;;24.05;;
19605;SDS011;9950;50.168;8.210;2022-12-18T14:29:00;62.22;;;24.58;;
19605;SDS011;9950;50.168;8.210;2022-12-18T14:31:28;61.45;;;23.90;;
19605;SDS011;9950;50.168;8.210;2022-12-18T14:33:58;62.38;;;24.88;;
19605;SDS011;9950;50.168;8.210;2022-12-18T14:36:26;60.90;;;24.40;;
19605;SDS011;9950;50.168;8.210;2022-12-18T14:38:54;66.63;;;24.90;;
19605;SDS011;9950;50.168;8.210;2022-12-18T14:41:22;61.45;;;24.13;;
19605;SDS011;9950;50.168;8.210;2022-12-18T14:43:50;61.92;;;26.38;;
19605;SDS011;9950;50.168;8.210;2022-12-18T14:46:28;70.32;;;27.00;;
19605;SDS011;9950;50.168;8.210;2022-12-18T14:48:55;55.72;;;22.77;;
19605;SDS011;9950;50.168;8.210;2022-12-18T14:51:25;61.67;;;23.58;;
19605;SDS011;9950;50.168;8.210;2022-12-18T14:53:53;61.00;;;23.70;;